Venus Seven — H9RN — position and weather

sailwx.info

Track history (hours):
 
Tides and Currents Weather Stations Pressure Air Temp Water Temp Dewpoint Dewpoint Depression Visibility Wind Speed Wind Dir Waves Ship Positions

Venus Seven

Last reported at 2016-Dec-03 05:33 UTC. Time now 2016-Dec-03 17:46 UTC.
Position N 22°44' E 120°09'.

Length 93 m; draft 4.3 m.

Type: Cargo ship. MMSI: 353405000.

Date/timePositionNaut miles runAvg speedWind from/ knotsBaromVisibWave heightAir tempDewpointWater temp
2016-Dec-03 05:33N 22°44' E 120°09'1110.0
2016-Dec-03 04:29N 22°36' E 120°18'0 0.0
2016-Dec-03 03:05N 22°36' E 120°18'0 0.0
2016-Dec-03 01:23N 22°36' E 120°18'0 0.0
2016-Dec-03 00:29N 22°36' E 120°18'0 0.0
2016-Dec-02 15:11N 22°36' E 120°18'0 0.0
2016-Dec-02 12:11N 22°36' E 120°18'0 0.0
2016-Dec-02 10:17N 22°36' E 120°18'0 0.0
2016-Dec-02 08:22N 22°36' E 120°18'0 0.0
2016-Dec-02 07:33N 22°36' E 120°18'2 1.8
2016-Dec-02 06:33N 22°37' E 120°16'5 4.8
2016-Dec-02 05:33N 22°38' E 120°11'4 4.5
2016-Dec-02 04:33N 22°41' E 120°07'  
2016-Nov-28 10:09N 34°01' E 134°56'813.7
2016-Nov-28 09:33N 34°09' E 134°57'2612.9
2016-Nov-28 07:33N 34°31' E 135°13'1110.9
2016-Nov-28 06:33N 34°38' E 135°24'1 0.6
2016-Nov-28 05:30N 34°38' E 135°25'0 0.0
2016-Nov-28 04:30N 34°38' E 135°25'0 0.0
2016-Nov-28 03:30N 34°38' E 135°25'0 0.0
2016-Nov-28 02:24N 34°38' E 135°25'0 0.0
2016-Nov-28 01:30N 34°38' E 135°25'0 0.0
2016-Nov-28 00:24N 34°38' E 135°25'0 0.0
2016-Nov-27 23:30N 34°38' E 135°25'0 0.0
2016-Nov-27 22:24N 34°38' E 135°25'0 0.0
2016-Nov-27 21:30N 34°38' E 135°25'0 0.0
2016-Nov-27 20:30N 34°38' E 135°25'0 0.0
2016-Nov-27 19:30N 34°38' E 135°25'0 0.0
2016-Nov-27 18:30N 34°38' E 135°25'0 0.0
2016-Nov-27 17:30N 34°38' E 135°25'0 0.0
2016-Nov-27 16:30N 34°38' E 135°25'0 0.0
2016-Nov-27 15:30N 34°38' E 135°25'0 0.0
2016-Nov-27 14:12N 34°38' E 135°25'0 0.0
2016-Nov-27 13:24N 34°38' E 135°25'0 0.0
2016-Nov-27 12:30N 34°38' E 135°25'0 0.0
2016-Nov-27 11:30N 34°38' E 135°25'0 0.0
2016-Nov-27 10:24N 34°38' E 135°25'0 0.0
2016-Nov-27 09:24N 34°38' E 135°25'0 0.0
2016-Nov-27 08:29N 34°38' E 135°25'0 0.0
2016-Nov-27 07:29N 34°38' E 135°25'0 0.0
2016-Nov-27 06:29N 34°38' E 135°25'0 0.0
2016-Nov-27 04:29N 34°38' E 135°25'0 0.0
2016-Nov-27 03:23N 34°38' E 135°25'0 0.0
2016-Nov-27 02:29N 34°38' E 135°25'0 0.0
2016-Nov-27 01:29N 34°38' E 135°25'0 0.0
2016-Nov-27 00:29N 34°38' E 135°25'0 0.0
2016-Nov-26 23:29N 34°38' E 135°25'0 0.0
2016-Nov-26 22:29N 34°38' E 135°25'0 0.0
2016-Nov-26 21:29N 34°38' E 135°25'0 0.0
2016-Nov-26 20:29N 34°38' E 135°25'0 0.0
2016-Nov-26 19:29N 34°38' E 135°25'0 0.0
2016-Nov-26 18:29N 34°38' E 135°25'0 0.0
2016-Nov-26 17:29N 34°38' E 135°25'0 0.0
2016-Nov-26 16:29N 34°38' E 135°25'0 0.0
2016-Nov-26 15:23N 34°38' E 135°25'0 0.0
2016-Nov-26 14:11N 34°38' E 135°25'0 0.0
2016-Nov-26 13:29N 34°38' E 135°25'0 0.0
2016-Nov-26 12:29N 34°38' E 135°25'0 0.0
2016-Nov-26 11:23N 34°38' E 135°25'0 0.0
2016-Nov-26 10:29N 34°38' E 135°25'0 0.0
2016-Nov-26 09:29N 34°38' E 135°25'0 0.0
2016-Nov-26 08:29N 34°38' E 135°25'0 0.0
2016-Nov-26 07:29N 34°38' E 135°25'0 0.0
2016-Nov-26 06:23N 34°38' E 135°25'0 0.0
2016-Nov-26 05:23N 34°38' E 135°25'0 0.0
2016-Nov-26 04:29N 34°38' E 135°25'0 0.0
2016-Nov-26 03:29N 34°38' E 135°25'0 0.0
2016-Nov-26 02:29N 34°38' E 135°25'0 0.0
2016-Nov-26 01:29N 34°38' E 135°25'0 0.0
2016-Nov-26 00:29N 34°38' E 135°25'0 0.0
2016-Nov-25 23:32N 34°38' E 135°25'0 0.0
2016-Nov-25 22:32N 34°38' E 135°25'1 0.7
2016-Nov-25 21:33N 34°38' E 135°24'1 0.9
2016-Nov-25 20:16N 34°37' E 135°23'0 0.0
2016-Nov-25 19:28N 34°37' E 135°23'0 0.0
2016-Nov-25 18:28N 34°37' E 135°23'0 0.0
2016-Nov-25 17:16N 34°37' E 135°23'0 0.0
2016-Nov-25 16:28N 34°37' E 135°23'0 0.0
2016-Nov-25 15:28N 34°37' E 135°23'6 6.4
2016-Nov-25 14:33N 34°34' E 135°17'8 8.2
2016-Nov-25 13:33N 34°32' E 135°07'1211.6
2016-Nov-25 12:29N 34°34' E 134°53'8 0.3
2016-Nov-24 08:30N 34°37' E 135°01'1212.7
2016-Nov-24 07:33N 34°36' E 135°16'7 6.9
2016-Nov-24 06:28N 34°38' E 135°25'0 0.0
2016-Nov-24 05:28N 34°38' E 135°25'0 0.0
2016-Nov-24 04:16N 34°38' E 135°25'0 0.0
2016-Nov-24 03:34N 34°38' E 135°25'0 0.0
2016-Nov-24 02:34N 34°38' E 135°25'0 0.0
2016-Nov-24 01:27N 34°38' E 135°25'0 0.0
2016-Nov-24 00:33N 34°38' E 135°25'0 0.0
2016-Nov-23 23:33N 34°38' E 135°25'0 0.0
2016-Nov-23 22:33N 34°38' E 135°25'2 2.1
2016-Nov-23 21:33N 34°37' E 135°22'7 6.9
2016-Nov-23 20:33N 34°33' E 135°16'1111.3
2016-Nov-23 19:33N 34°26' E 135°06'1010.1
2016-Nov-23 18:33N 34°17' E 134°59'7 7.1
2016-Nov-23 17:33N 34°10' E 134°59'  
Track history (hours):
 
Tides and Currents Weather Stations Pressure Air Temp Water Temp Dewpoint Dewpoint Depression Visibility Wind Speed Wind Dir Waves Ship Positions

Venus Seven

Last reported at 2016-Dec-03 05:33 UTC. Time now 2016-Dec-03 17:46 UTC.
Position N 22°44' E 120°09'.

Length 93 m; draft 4.3 m.

Type: Cargo ship. MMSI: 353405000.

Date/timePositionNaut miles runAvg speedWind from/ knotsBaromVisibWave heightAir tempDewpointWater temp
2016-Dec-03 05:33N 22°44' E 120°09'1110.0
2016-Dec-03 04:29N 22°36' E 120°18'0 0.0
2016-Dec-03 03:05N 22°36' E 120°18'0 0.0
2016-Dec-03 01:23N 22°36' E 120°18'0 0.0
2016-Dec-03 00:29N 22°36' E 120°18'0 0.0
2016-Dec-02 15:11N 22°36' E 120°18'0 0.0
2016-Dec-02 12:11N 22°36' E 120°18'0 0.0
2016-Dec-02 10:17N 22°36' E 120°18'0 0.0
2016-Dec-02 08:22N 22°36' E 120°18'0 0.0
2016-Dec-02 07:33N 22°36' E 120°18'2 1.8
2016-Dec-02 06:33N 22°37' E 120°16'5 4.8
2016-Dec-02 05:33N 22°38' E 120°11'4 4.5
2016-Dec-02 04:33N 22°41' E 120°07'  
2016-Nov-28 10:09N 34°01' E 134°56'813.7
2016-Nov-28 09:33N 34°09' E 134°57'2612.9
2016-Nov-28 07:33N 34°31' E 135°13'1110.9
2016-Nov-28 06:33N 34°38' E 135°24'1 0.6
2016-Nov-28 05:30N 34°38' E 135°25'0 0.0
2016-Nov-28 04:30N 34°38' E 135°25'0 0.0
2016-Nov-28 03:30N 34°38' E 135°25'0 0.0
2016-Nov-28 02:24N 34°38' E 135°25'0 0.0
2016-Nov-28 01:30N 34°38' E 135°25'0 0.0
2016-Nov-28 00:24N 34°38' E 135°25'0 0.0
2016-Nov-27 23:30N 34°38' E 135°25'0 0.0
2016-Nov-27 22:24N 34°38' E 135°25'0 0.0
2016-Nov-27 21:30N 34°38' E 135°25'0 0.0
2016-Nov-27 20:30N 34°38' E 135°25'0 0.0
2016-Nov-27 19:30N 34°38' E 135°25'0 0.0
2016-Nov-27 18:30N 34°38' E 135°25'0 0.0
2016-Nov-27 17:30N 34°38' E 135°25'0 0.0
2016-Nov-27 16:30N 34°38' E 135°25'0 0.0
2016-Nov-27 15:30N 34°38' E 135°25'0 0.0
2016-Nov-27 14:12N 34°38' E 135°25'0 0.0
2016-Nov-27 13:24N 34°38' E 135°25'0 0.0
2016-Nov-27 12:30N 34°38' E 135°25'0 0.0
2016-Nov-27 11:30N 34°38' E 135°25'0 0.0
2016-Nov-27 10:24N 34°38' E 135°25'0 0.0
2016-Nov-27 09:24N 34°38' E 135°25'0 0.0
2016-Nov-27 08:29N 34°38' E 135°25'0 0.0
2016-Nov-27 07:29N 34°38' E 135°25'0 0.0
2016-Nov-27 06:29N 34°38' E 135°25'0 0.0
2016-Nov-27 04:29N 34°38' E 135°25'0 0.0
2016-Nov-27 03:23N 34°38' E 135°25'0 0.0
2016-Nov-27 02:29N 34°38' E 135°25'0 0.0
2016-Nov-27 01:29N 34°38' E 135°25'0 0.0
2016-Nov-27 00:29N 34°38' E 135°25'0 0.0
2016-Nov-26 23:29N 34°38' E 135°25'0 0.0
2016-Nov-26 22:29N 34°38' E 135°25'0 0.0
2016-Nov-26 21:29N 34°38' E 135°25'0 0.0
2016-Nov-26 20:29N 34°38' E 135°25'0 0.0
2016-Nov-26 19:29N 34°38' E 135°25'0 0.0
2016-Nov-26 18:29N 34°38' E 135°25'0 0.0
2016-Nov-26 17:29N 34°38' E 135°25'0 0.0
2016-Nov-26 16:29N 34°38' E 135°25'0 0.0
2016-Nov-26 15:23N 34°38' E 135°25'0 0.0
2016-Nov-26 14:11N 34°38' E 135°25'0 0.0
2016-Nov-26 13:29N 34°38' E 135°25'0 0.0
2016-Nov-26 12:29N 34°38' E 135°25'0 0.0
2016-Nov-26 11:23N 34°38' E 135°25'0 0.0
2016-Nov-26 10:29N 34°38' E 135°25'0 0.0
2016-Nov-26 09:29N 34°38' E 135°25'0 0.0
2016-Nov-26 08:29N 34°38' E 135°25'0 0.0
2016-Nov-26 07:29N 34°38' E 135°25'0 0.0
2016-Nov-26 06:23N 34°38' E 135°25'0 0.0
2016-Nov-26 05:23N 34°38' E 135°25'0 0.0
2016-Nov-26 04:29N 34°38' E 135°25'0 0.0
2016-Nov-26 03:29N 34°38' E 135°25'0 0.0
2016-Nov-26 02:29N 34°38' E 135°25'0 0.0
2016-Nov-26 01:29N 34°38' E 135°25'0 0.0
2016-Nov-26 00:29N 34°38' E 135°25'0 0.0
2016-Nov-25 23:32N 34°38' E 135°25'0 0.0
2016-Nov-25 22:32N 34°38' E 135°25'1 0.7
2016-Nov-25 21:33N 34°38' E 135°24'1 0.9
2016-Nov-25 20:16N 34°37' E 135°23'0 0.0
2016-Nov-25 19:28N 34°37' E 135°23'0 0.0
2016-Nov-25 18:28N 34°37' E 135°23'0 0.0
2016-Nov-25 17:16N 34°37' E 135°23'0 0.0
2016-Nov-25 16:28N 34°37' E 135°23'0 0.0
2016-Nov-25 15:28N 34°37' E 135°23'6 6.4
2016-Nov-25 14:33N 34°34' E 135°17'8 8.2
2016-Nov-25 13:33N 34°32' E 135°07'1211.6
2016-Nov-25 12:29N 34°34' E 134°53'8 0.3
2016-Nov-24 08:30N 34°37' E 135°01'1212.7
2016-Nov-24 07:33N 34°36' E 135°16'7 6.9
2016-Nov-24 06:28N 34°38' E 135°25'0 0.0
2016-Nov-24 05:28N 34°38' E 135°25'0 0.0
2016-Nov-24 04:16N 34°38' E 135°25'0 0.0
2016-Nov-24 03:34N 34°38' E 135°25'0 0.0
2016-Nov-24 02:34N 34°38' E 135°25'0 0.0
2016-Nov-24 01:27N 34°38' E 135°25'0 0.0
2016-Nov-24 00:33N 34°38' E 135°25'0 0.0
2016-Nov-23 23:33N 34°38' E 135°25'0 0.0
2016-Nov-23 22:33N 34°38' E 135°25'2 2.1
2016-Nov-23 21:33N 34°37' E 135°22'7 6.9
2016-Nov-23 20:33N 34°33' E 135°16'1111.3
2016-Nov-23 19:33N 34°26' E 135°06'1010.1
2016-Nov-23 18:33N 34°17' E 134°59'7 7.1
2016-Nov-23 17:33N 34°10' E 134°59'  

Dump ship's entire track history